Time;durP1;ratioP1;P1;durP2;ratioP2;P2;SDS_P1;SDS_P2;PMS_P1;PMS_P2;Temp;Humidity;BMP_temperature;BMP_pressure;BME280_temperature;BME280_humidity;BME280_pressure;Samples;Min_cycle;Max_cycle;Signal;HPM_P1;HPM_P2
2022/11/06 00:00:34;;;;;;;15.52;6.07;;;;;;;;;;6270159;28;20037;-85
2022/11/06 00:03:36;;;;;;;10.90;6.10;;;;;;;;;;6254818;28;20040;-86
2022/11/06 00:06:48;;;;;;;13.55;6.55;;;;;;;;;;6259755;28;20064;-86
2022/11/06 00:09:50;;;;;;;13.43;6.53;;;;;;;;;;6260879;28;20048;-87
2022/11/06 00:12:51;;;;;;;13.55;6.43;;;;;;;;;;6265305;28;20455;-86
2022/11/06 00:15:53;;;;;;;18.98;8.43;;;;;;;;;;6250186;28;20044;-86
2022/11/06 00:19:00;;;;;;;14.32;6.35;;;;;;;;;;6265229;28;20044;-86
2022/11/06 00:22:02;;;;;;;12.50;6.38;;;;;;;;;;6239443;28;20044;-85
2022/11/06 00:25:05;;;;;;;13.25;6.55;;;;;;;;;;6260975;28;20112;-85
2022/11/06 00:28:08;;;;;;;;;;;;;;;;;;6285374;28;20060;-85
2022/11/06 00:31:16;;;;;;;14.88;6.25;;;;;;;;;;6277816;28;19928;-86
2022/11/06 00:34:18;;;;;;;12.55;6.10;;;;;;;;;;6270833;28;20052;-86
2022/11/06 00:37:19;;;;;;;14.65;6.90;;;;;;;;;;6285505;28;20417;-86
2022/11/06 00:40:24;;;;;;;19.35;7.90;;;;;;;;;;6268743;28;20052;-86
2022/11/06 00:43:26;;;;;;;16.17;7.93;;;;;;;;;;6286415;28;20132;-86
2022/11/06 00:46:29;;;;;;;16.73;7.85;;;;;;;;;;6264863;28;20045;-86
2022/11/06 00:49:31;;;;;;;20.50;9.52;;;;;;;;;;6247699;28;20044;-86
2022/11/06 00:52:33;;;;;;;18.42;8.05;;;;;;;;;;6285417;28;20086;-85
2022/11/06 00:55:35;;;;;;;17.52;7.82;;;;;;;;;;6252252;28;20052;-86
2022/11/06 00:58:38;;;;;;;15.20;7.70;;;;;;;;;;6269726;28;20100;-86
2022/11/06 01:01:44;;;;;;;15.90;7.30;;;;;;;;;;6280704;28;20052;-86
2022/11/06 01:04:48;;;;;;;14.52;6.43;;;;;;;;;;6271344;28;20766;-85
2022/11/06 01:07:49;;;;;;;12.73;6.20;;;;;;;;;;6266305;28;20072;-86
2022/11/06 01:10:51;;;;;;;13.40;6.90;;;;;;;;;;6280508;28;20049;-86
2022/11/06 01:13:56;;;;;;;12.30;5.65;;;;;;;;;;6262870;28;20052;-87
2022/11/06 01:16:58;;;;;;;12.10;6.03;;;;;;;;;;6264462;28;20044;-86
2022/11/06 01:20:00;;;;;;;15.63;6.93;;;;;;;;;;6282691;28;20044;-86
2022/11/06 01:23:04;;;;;;;13.38;5.72;;;;;;;;;;6277306;28;20569;-86
2022/11/06 01:26:08;;;;;;;13.35;6.15;;;;;;;;;;6252506;28;20431;-86
2022/11/06 01:29:14;;;;;;;11.70;6.28;;;;;;;;;;6246918;28;20037;-85
2022/11/06 01:32:19;;;;;;;13.88;6.50;;;;;;;;;;6282188;28;20044;-86
2022/11/06 01:35:22;;;;;;;15.95;6.78;;;;;;;;;;6213338;28;20043;-86
2022/11/06 01:38:24;;;;;;;16.10;7.22;;;;;;;;;;6250878;28;20037;-86
2022/11/06 01:41:30;;;;;;;14.13;7.53;;;;;;;;;;6264351;28;20083;-86
2022/11/06 01:44:37;;;;;;;16.55;7.47;;;;;;;;;;6266047;28;20040;-85
2022/11/06 01:47:39;;;;;;;18.55;7.25;;;;;;;;;;6268616;28;20067;-86
2022/11/06 01:50:47;;;;;;;17.08;7.32;;;;;;;;;;6273681;28;21225;-85
2022/11/06 01:53:56;;;;;;;13.48;6.47;;;;;;;;;;6267361;28;20068;-86
2022/11/06 01:57:00;;;;;;;15.45;7.28;;;;;;;;;;6277156;28;20048;-86
2022/11/06 02:00:09;;;;;;;13.60;6.63;;;;;;;;;;6281539;28;20040;-86
2022/11/06 02:03:12;;;;;;;16.88;6.47;;;;;;;;;;6308480;28;20059;-86
2022/11/06 02:06:14;;;;;;;13.13;6.47;;;;;;;;;;6295291;28;20059;-86
2022/11/06 02:09:18;;;;;;;19.83;7.30;;;;;;;;;;6302014;28;20459;-86
2022/11/06 02:12:47;;;;;;;15.20;7.38;;;;;;;;;;6269506;28;20071;-86
2022/11/06 02:16:13;;;;;;;16.17;6.72;;;;;;;;;;6282200;28;20063;-86
2022/11/06 02:19:33;;;;;;;15.48;7.70;;;;;;;;;;6266520;28;20055;-86
2022/11/06 02:22:51;;;;;;;17.92;8.20;;;;;;;;;;6251907;28;20045;-85
2022/11/06 02:26:23;;;;;;;19.65;8.05;;;;;;;;;;6255283;28;20116;-85
2022/11/06 02:29:33;;;;;;;20.10;8.25;;;;;;;;;;6262697;28;20047;-86
2022/11/06 02:32:56;;;;;;;15.73;7.72;;;;;;;;;;6267238;28;20049;-85
2022/11/06 02:36:08;;;;;;;21.02;8.88;;;;;;;;;;6252670;28;20095;-86
2022/11/06 02:39:17;;;;;;;17.23;7.60;;;;;;;;;;6252300;28;20456;-86
2022/11/06 02:42:20;;;;;;;17.40;7.90;;;;;;;;;;6227238;28;20746;-86
2022/11/06 02:45:25;;;;;;;20.50;8.75;;;;;;;;;;6251413;28;20037;-87
2022/11/06 02:48:36;;;;;;;20.33;8.88;;;;;;;;;;6260613;28;20036;-89
2022/11/06 02:51:50;;;;;;;23.35;8.25;;;;;;;;;;6258582;28;20400;-87
2022/11/06 02:55:13;;;;;;;21.60;8.75;;;;;;;;;;6279520;28;20125;-87
2022/11/06 02:58:27;;;;;;;23.48;8.68;;;;;;;;;;6287668;28;20052;-86
2022/11/06 03:01:48;;;;;;;20.83;8.50;;;;;;;;;;6265177;28;20041;-87
2022/11/06 03:04:59;;;;;;;19.05;8.52;;;;;;;;;;6276887;28;20693;-88
2022/11/06 03:08:17;;;;;;;19.23;8.32;;;;;;;;;;6268352;28;20081;-87
2022/11/06 03:11:29;;;;;;;16.40;8.13;;;;;;;;;;6235187;28;20083;-87
2022/11/06 03:14:38;;;;;;;19.40;8.70;;;;;;;;;;6260929;28;20132;-88
2022/11/06 03:18:15;;;;;;;19.15;8.65;;;;;;;;;;6237069;28;20056;-87
2022/11/06 03:21:32;;;;;;;17.60;7.90;;;;;;;;;;6240530;28;20040;-86
2022/11/06 03:24:38;;;;;;;17.40;8.32;;;;;;;;;;6241993;28;20045;-86
2022/11/06 03:27:48;;;;;;;17.67;8.15;;;;;;;;;;6259302;28;20127;-87
2022/11/06 03:30:54;;;;;;;18.35;8.60;;;;;;;;;;6259348;28;20131;-86
2022/11/06 03:34:07;;;;;;;17.90;8.98;;;;;;;;;;6240358;28;20052;-87
2022/11/06 03:37:31;;;;;;;16.02;8.07;;;;;;;;;;6261686;28;20048;-87
2022/11/06 03:40:42;;;;;;;21.65;8.73;;;;;;;;;;6261962;28;20541;-87
2022/11/06 03:43:50;;;;;;;19.38;8.40;;;;;;;;;;6233361;28;20096;-87
2022/11/06 03:47:03;;;;;;;17.00;8.10;;;;;;;;;;6258791;28;20052;-86
2022/11/06 03:50:31;;;;;;;18.90;8.13;;;;;;;;;;6259081;28;20127;-88
2022/11/06 03:53:53;;;;;;;16.52;7.70;;;;;;;;;;6261883;28;20055;-87
2022/11/06 03:57:20;;;;;;;15.90;8.00;;;;;;;;;;6257007;28;20047;-87
2022/11/06 04:00:25;;;;;;;15.32;8.32;;;;;;;;;;6246210;28;20117;-88
2022/11/06 04:03:36;;;;;;;16.83;8.40;;;;;;;;;;6254291;28;21515;-87
2022/11/06 04:06:59;;;;;;;20.30;9.80;;;;;;;;;;6235284;28;20494;-86
2022/11/06 04:16:53;;;;;;;17.80;7.45;;;;;;;;;;6278081;28;20088;-87
2022/11/06 04:20:00;;;;;;;18.13;7.35;;;;;;;;;;6263973;28;20049;-87
2022/11/06 04:23:37;;;;;;;16.50;7.63;;;;;;;;;;6254014;28;20117;-87
2022/11/06 04:26:55;;;;;;;15.90;7.38;;;;;;;;;;6259736;28;20044;-87
2022/11/06 04:29:56;;;;;;;13.68;7.22;;;;;;;;;;6276447;28;20044;-89
2022/11/06 04:33:06;;;;;;;14.38;7.13;;;;;;;;;;6248277;28;20036;-87
2022/11/06 04:36:39;;;;;;;16.08;7.43;;;;;;;;;;6277422;28;20055;-87
2022/11/06 04:40:03;;;;;;;15.02;7.35;;;;;;;;;;6268645;28;20048;-87
2022/11/06 04:43:13;;;;;;;15.80;7.00;;;;;;;;;;6261073;28;20056;-87
2022/11/06 04:46:22;;;;;;;15.98;7.50;;;;;;;;;;6261097;28;20047;-87
2022/11/06 04:49:28;;;;;;;11.85;6.47;;;;;;;;;;6248205;28;20040;-88
2022/11/06 04:52:31;;;;;;;17.05;7.10;;;;;;;;;;6276091;28;20040;-86
2022/11/06 04:55:44;;;;;;;15.45;6.97;;;;;;;;;;6252361;28;20458;-85
2022/11/06 04:58:46;;;;;;;12.82;6.70;;;;;;;;;;6274327;28;20040;-88
2022/11/06 05:01:52;;;;;;;18.20;7.90;;;;;;;;;;6256500;28;20048;-88
2022/11/06 05:04:56;;;;;;;15.05;6.53;;;;;;;;;;6256797;28;20056;-86
2022/11/06 05:07:58;;;;;;;14.65;7.05;;;;;;;;;;6220969;28;20098;-88
2022/11/06 05:11:00;;;;;;;14.63;6.93;;;;;;;;;;6263848;28;20067;-86
2022/11/06 05:14:03;;;;;;;15.30;6.85;;;;;;;;;;6246400;28;20123;-86
2022/11/06 05:17:05;;;;;;;14.07;7.05;;;;;;;;;;6246769;28;20052;-86
2022/11/06 05:20:08;;;;;;;15.32;6.28;;;;;;;;;;6272713;28;20100;-84
2022/11/06 05:23:11;;;;;;;14.93;7.17;;;;;;;;;;6265966;28;20360;-84
2022/11/06 05:26:14;;;;;;;18.95;6.90;;;;;;;;;;6274275;28;20478;-85
2022/11/06 05:29:17;;;;;;;12.43;6.60;;;;;;;;;;6292899;28;20053;-85
2022/11/06 05:32:19;;;;;;;11.25;6.35;;;;;;;;;;6268017;28;20068;-85
2022/11/06 05:35:20;;;;;;;13.68;5.97;;;;;;;;;;6264831;28;20047;-85
2022/11/06 05:38:22;;;;;;;10.90;6.28;;;;;;;;;;6243182;28;20052;-85
2022/11/06 05:41:24;;;;;;;12.10;6.50;;;;;;;;;;6252355;28;20052;-85
2022/11/06 05:44:27;;;;;;;14.23;6.45;;;;;;;;;;6262467;28;20109;-85
2022/11/06 05:47:29;;;;;;;11.93;6.33;;;;;;;;;;6266697;28;21311;-85
2022/11/06 05:50:31;;;;;;;11.85;6.55;;;;;;;;;;6264810;28;20051;-85
2022/11/06 05:53:37;;;;;;;14.38;7.30;;;;;;;;;;6266437;28;20182;-85
2022/11/06 05:56:39;;;;;;;14.77;6.78;;;;;;;;;;6232758;28;20526;-86
2022/11/06 05:59:41;;;;;;;46.20;20.80;;;;;;;;;;6260401;28;20454;-87
2022/11/06 06:02:47;;;;;;;22.70;11.63;;;;;;;;;;6261163;28;20044;-87
2022/11/06 06:05:50;;;;;;;16.52;8.65;;;;;;;;;;6236772;28;20041;-86
2022/11/06 06:08:52;;;;;;;17.07;7.40;;;;;;;;;;6234347;28;20540;-86
2022/11/06 06:11:54;;;;;;;14.93;7.38;;;;;;;;;;6244293;28;20462;-86
2022/11/06 06:14:55;;;;;;;13.75;7.10;;;;;;;;;;6237082;28;20480;-86
2022/11/06 06:17:57;;;;;;;14.00;7.00;;;;;;;;;;6265153;28;20049;-87
2022/11/06 06:20:59;;;;;;;13.90;6.95;;;;;;;;;;6268076;28;20064;-87
2022/11/06 06:24:05;;;;;;;12.60;6.95;;;;;;;;;;6241024;28;20067;-86
2022/11/06 06:27:07;;;;;;;16.73;9.55;;;;;;;;;;6255659;28;20048;-85
2022/11/06 06:30:10;;;;;;;17.13;8.13;;;;;;;;;;6270607;28;20543;-85
2022/11/06 06:33:12;;;;;;;15.80;7.00;;;;;;;;;;6257506;28;20454;-86
2022/11/06 06:36:14;;;;;;;15.95;7.35;;;;;;;;;;6254740;28;20596;-86
2022/11/06 06:39:18;;;;;;;19.58;6.97;;;;;;;;;;6255962;28;20048;-86
2022/11/06 06:42:19;;;;;;;24.20;10.43;;;;;;;;;;6258453;28;20051;-85
2022/11/06 06:45:22;;;;;;;13.10;7.07;;;;;;;;;;6266720;28;20052;-85
2022/11/06 06:48:24;;;;;;;13.65;7.30;;;;;;;;;;6271966;28;20041;-85
2022/11/06 06:51:26;;;;;;;16.23;6.72;;;;;;;;;;6291162;28;20041;-86
2022/11/06 06:54:28;;;;;;;16.25;6.72;;;;;;;;;;6270947;28;20053;-87
2022/11/06 06:57:30;;;;;;;16.33;7.25;;;;;;;;;;6293476;28;20040;-85
2022/11/06 07:00:32;;;;;;;17.85;8.88;;;;;;;;;;6293522;28;20047;-84
2022/11/06 07:03:35;;;;;;;14.05;7.43;;;;;;;;;;6279325;28;20032;-85
2022/11/06 07:06:37;;;;;;;10.43;6.20;;;;;;;;;;6297806;28;20076;-85
2022/11/06 07:09:40;;;;;;;15.52;7.85;;;;;;;;;;6264212;28;20040;-84
2022/11/06 07:12:41;;;;;;;16.45;6.78;;;;;;;;;;6261147;28;20064;-86
2022/11/06 07:15:43;;;;;;;38.25;17.10;;;;;;;;;;6272116;28;20458;-86
2022/11/06 07:18:45;;;;;;;13.63;6.97;;;;;;;;;;6277560;28;20180;-85
2022/11/06 07:21:50;;;;;;;12.07;5.57;;;;;;;;;;6287739;28;20052;-85
2022/11/06 07:24:52;;;;;;;17.25;6.53;;;;;;;;;;6289853;28;20102;-85
2022/11/06 07:27:54;;;;;;;8.75;5.22;;;;;;;;;;6296415;28;20049;-87
2022/11/06 07:31:05;;;;;;;11.52;6.43;;;;;;;;;;6267204;28;20116;-85
2022/11/06 07:34:08;;;;;;;16.80;7.75;;;;;;;;;;6247588;28;20055;-85
2022/11/06 07:37:09;;;;;;;26.27;10.48;;;;;;;;;;6296055;28;20434;-87
2022/11/06 07:40:12;;;;;;;12.98;6.90;;;;;;;;;;6294179;28;20067;-84
2022/11/06 07:43:14;;;;;;;13.38;7.43;;;;;;;;;;6298585;28;20071;-85
2022/11/06 07:46:16;;;;;;;26.75;14.32;;;;;;;;;;6277507;28;20041;-85
2022/11/06 07:49:18;;;;;;;10.40;5.70;;;;;;;;;;6280528;28;20068;-84
2022/11/06 07:52:23;;;;;;;11.07;4.72;;;;;;;;;;6277012;28;20055;-85
2022/11/06 07:55:24;;;;;;;12.73;6.53;;;;;;;;;;6278059;28;20548;-84
2022/11/06 07:58:27;;;;;;;6.90;5.05;;;;;;;;;;6267794;28;20123;-84
2022/11/06 08:01:29;;;;;;;13.27;6.28;;;;;;;;;;6282055;28;20056;-85
2022/11/06 08:04:31;;;;;;;12.70;6.45;;;;;;;;;;6271453;28;20060;-86
2022/11/06 08:07:33;;;;;;;13.00;6.00;;;;;;;;;;6260741;28;20044;-84
2022/11/06 08:10:39;;;;;;;11.73;5.03;;;;;;;;;;6280462;28;20032;-84
2022/11/06 08:13:40;;;;;;;8.98;4.30;;;;;;;;;;6287830;28;20127;-85
2022/11/06 08:16:42;;;;;;;8.88;4.63;;;;;;;;;;6233672;28;20048;-86
2022/11/06 08:19:47;;;;;;;8.52;4.78;;;;;;;;;;6282254;28;20123;-86
2022/11/06 08:22:49;;;;;;;7.28;4.53;;;;;;;;;;6287383;28;20119;-85
2022/11/06 08:25:58;;;;;;;9.00;5.10;;;;;;;;;;6287657;28;20486;-88
2022/11/06 08:29:00;;;;;;;10.82;4.93;;;;;;;;;;6257299;28;20041;-85
2022/11/06 08:32:01;;;;;;;7.22;4.43;;;;;;;;;;6282618;28;20041;-85
2022/11/06 08:35:03;;;;;;;9.52;5.18;;;;;;;;;;6276240;28;20194;-87
2022/11/06 08:38:07;;;;;;;13.02;6.20;;;;;;;;;;6278538;28;20041;-88
2022/11/06 08:41:11;;;;;;;9.45;5.00;;;;;;;;;;6291874;28;20052;-85
2022/11/06 08:44:14;;;;;;;11.23;4.82;;;;;;;;;;6273334;28;20044;-87
2022/11/06 08:47:18;;;;;;;8.30;4.65;;;;;;;;;;6252016;28;20048;-87
2022/11/06 08:50:20;;;;;;;7.88;4.03;;;;;;;;;;6277372;28;20613;-85
2022/11/06 08:53:21;;;;;;;9.23;3.90;;;;;;;;;;6277987;28;20122;-85
2022/11/06 08:56:23;;;;;;;8.27;4.10;;;;;;;;;;6290365;28;20036;-85
2022/11/06 08:59:25;;;;;;;9.98;4.65;;;;;;;;;;6289032;28;20098;-85
2022/11/06 09:02:27;;;;;;;10.00;5.60;;;;;;;;;;6256397;28;20138;-85
2022/11/06 09:05:30;;;;;;;14.05;6.68;;;;;;;;;;6282585;22;20036;-83
2022/11/06 09:08:31;;;;;;;8.63;4.70;;;;;;;;;;6247485;28;20045;-84
2022/11/06 09:11:33;;;;;;;5.55;3.55;;;;;;;;;;6247984;28;20160;-83
2022/11/06 09:14:34;;;;;;;5.57;3.53;;;;;;;;;;6270517;28;20336;-85
2022/11/06 09:17:43;;;;;;;11.00;5.70;;;;;;;;;;6243958;28;20033;-83
2022/11/06 09:20:45;;;;;;;9.82;4.10;;;;;;;;;;6255913;28;20060;-84
2022/11/06 09:23:47;;;;;;;10.65;5.07;;;;;;;;;;6273634;28;20037;-84
2022/11/06 09:26:49;;;;;;;6.00;3.72;;;;;;;;;;6260086;28;20049;-83
2022/11/06 09:29:50;;;;;;;8.07;3.78;;;;;;;;;;6232661;28;20121;-84
2022/11/06 09:32:54;;;;;;;7.75;4.60;;;;;;;;;;6253841;28;20094;-84
2022/11/06 09:35:57;;;;;;;7.90;4.10;;;;;;;;;;6259186;28;20049;-84
2022/11/06 09:38:58;;;;;;;8.23;4.65;;;;;;;;;;6259795;28;20053;-85
2022/11/06 09:42:11;;;;;;;6.97;4.18;;;;;;;;;;6274753;28;20071;-84
2022/11/06 09:45:21;;;;;;;5.30;3.63;;;;;;;;;;6254067;28;20061;-84
2022/11/06 09:48:31;;;;;;;7.15;4.18;;;;;;;;;;6255618;28;20041;-84
2022/11/06 09:51:56;;;;;;;7.53;4.50;;;;;;;;;;6257527;28;20128;-85
2022/11/06 09:55:03;;;;;;;6.95;4.10;;;;;;;;;;6256654;28;20052;-84
2022/11/06 09:58:11;;;;;;;9.50;4.28;;;;;;;;;;6256476;28;20167;-85
2022/11/06 10:01:23;;;;;;;7.68;4.30;;;;;;;;;;6256215;28;20518;-86
2022/11/06 10:04:49;;;;;;;8.13;3.85;;;;;;;;;;6252837;28;20044;-85
2022/11/06 10:07:54;;;;;;;6.18;3.95;;;;;;;;;;6236759;28;20144;-85
2022/11/06 10:11:29;;;;;;;5.85;3.88;;;;;;;;;;6253839;28;20049;-84
2022/11/06 10:14:53;;;;;;;7.07;4.18;;;;;;;;;;6252988;28;20049;-84
2022/11/06 10:18:04;;;;;;;6.57;4.57;;;;;;;;;;6251295;28;20506;-86
2022/11/06 10:21:23;;;;;;;5.38;3.58;;;;;;;;;;6268459;28;20564;-86
2022/11/06 10:24:45;;;;;;;5.65;3.38;;;;;;;;;;6253011;28;20055;-87
2022/11/06 10:27:49;;;;;;;5.55;3.40;;;;;;;;;;6252826;28;20060;-85
2022/11/06 10:31:02;;;;;;;5.72;3.80;;;;;;;;;;6253316;28;20063;-85
2022/11/06 10:34:13;;;;;;;5.25;3.30;;;;;;;;;;6269735;28;20052;-85
2022/11/06 10:37:20;;;;;;;7.82;3.58;;;;;;;;;;6252372;28;20052;-84
2022/11/06 10:40:25;;;;;;;6.32;3.40;;;;;;;;;;6254884;28;20041;-85
2022/11/06 10:43:47;;;;;;;6.30;3.35;;;;;;;;;;6253331;28;20041;-85
2022/11/06 10:47:03;;;;;;;8.00;3.70;;;;;;;;;;6259754;28;20056;-85
2022/11/06 10:50:11;;;;;;;5.68;2.90;;;;;;;;;;6261847;28;20547;-85
2022/11/06 10:53:26;;;;;;;11.38;5.65;;;;;;;;;;6265295;28;20059;-85
2022/11/06 10:56:39;;;;;;;5.85;3.30;;;;;;;;;;6260850;28;20132;-84
2022/11/06 10:59:41;;;;;;;5.73;3.33;;;;;;;;;;6261807;28;20056;-85
2022/11/06 11:02:50;;;;;;;4.88;2.80;;;;;;;;;;6243145;28;20055;-85
2022/11/06 11:05:52;;;;;;;5.68;3.72;;;;;;;;;;6272557;28;20183;-85
2022/11/06 11:08:53;;;;;;;7.10;4.72;;;;;;;;;;6259349;28;20037;-85
2022/11/06 11:11:56;;;;;;;7.53;3.88;;;;;;;;;;6262106;28;20049;-85
2022/11/06 11:15:05;;;;;;;4.67;3.20;;;;;;;;;;6277343;28;20044;-85
2022/11/06 11:18:39;;;;;;;5.10;2.78;;;;;;;;;;6265889;28;20120;-85
2022/11/06 11:21:54;;;;;;;4.53;2.50;;;;;;;;;;6218765;28;20052;-85
2022/11/06 11:25:06;;;;;;;4.95;2.97;;;;;;;;;;6257850;28;20045;-85
2022/11/06 11:28:21;;;;;;;4.22;2.75;;;;;;;;;;6250098;28;20042;-85
2022/11/06 11:31:33;;;;;;;6.45;3.50;;;;;;;;;;6255487;28;20045;-85
2022/11/06 11:34:42;;;;;;;5.68;2.35;;;;;;;;;;6253971;28;20053;-84
2022/11/06 11:38:05;;;;;;;5.82;2.90;;;;;;;;;;6270269;28;20105;-85
2022/11/06 11:41:14;;;;;;;4.55;2.55;;;;;;;;;;6251971;28;20198;-84
2022/11/06 11:44:18;;;;;;;5.35;2.90;;;;;;;;;;6271609;28;20048;-85
2022/11/06 11:47:22;;;;;;;7.22;4.22;;;;;;;;;;6258364;28;20049;-83
2022/11/06 11:50:29;;;;;;;5.78;3.10;;;;;;;;;;6273194;28;20048;-84
2022/11/06 11:53:31;;;;;;;6.57;3.80;;;;;;;;;;6254155;28;20714;-84
2022/11/06 11:56:33;;;;;;;5.95;3.30;;;;;;;;;;6252071;28;20044;-84
2022/11/06 12:00:04;;;;;;;6.72;3.53;;;;;;;;;;6263839;28;20730;-85
2022/11/06 12:03:10;;;;;;;6.22;3.60;;;;;;;;;;6238417;28;20041;-87
2022/11/06 12:06:14;;;;;;;6.38;3.63;;;;;;;;;;6271297;28;20060;-86
2022/11/06 12:09:16;;;;;;;5.40;3.92;;;;;;;;;;6268867;28;20066;-85
2022/11/06 12:12:24;;;;;;;4.75;3.40;;;;;;;;;;6254952;28;20043;-86
2022/11/06 12:15:32;;;;;;;7.22;4.40;;;;;;;;;;6269329;28;20051;-86
2022/11/06 12:18:34;;;;;;;5.53;2.95;;;;;;;;;;6270628;28;20041;-84
2022/11/06 12:21:39;;;;;;;3.85;2.72;;;;;;;;;;6265247;28;20080;-84
2022/11/06 12:24:49;;;;;;;5.93;2.88;;;;;;;;;;6268395;28;20422;-86
2022/11/06 12:27:55;;;;;;;6.30;3.20;;;;;;;;;;6266363;28;20136;-84
2022/11/06 12:31:16;;;;;;;3.90;3.00;;;;;;;;;;6266639;28;21018;-85
2022/11/06 12:34:44;;;;;;;5.60;3.25;;;;;;;;;;6268790;28;20049;-85
2022/11/06 12:38:18;;;;;;;7.35;3.47;;;;;;;;;;6269854;28;20053;-85
2022/11/06 12:41:25;;;;;;;;;;;;;;;;;;6252518;28;20045;-86
2022/11/06 12:44:27;;;;;;;7.43;3.63;;;;;;;;;;6266366;28;19921;-86
2022/11/06 12:48:03;;;;;;;5.88;3.38;;;;;;;;;;6249603;28;20538;-84
2022/11/06 12:51:39;;;;;;;4.28;2.60;;;;;;;;;;6262374;28;20385;-84
2022/11/06 12:54:53;;;;;;;4.35;3.00;;;;;;;;;;6265462;28;20055;-86
2022/11/06 12:58:13;;;;;;;3.78;2.30;;;;;;;;;;6236783;28;20075;-85
2022/11/06 13:01:40;;;;;;;4.35;2.60;;;;;;;;;;6270608;28;20040;-86
2022/11/06 13:05:05;;;;;;;4.72;2.38;;;;;;;;;;6228298;28;20406;-85
2022/11/06 13:08:20;;;;;;;6.43;2.97;;;;;;;;;;6249637;28;20140;-84
2022/11/06 13:11:38;;;;;;;3.00;2.20;;;;;;;;;;6251992;28;20149;-84
2022/11/06 13:15:02;;;;;;;3.65;1.70;;;;;;;;;;6250204;28;21656;-85
2022/11/06 13:18:16;;;;;;;4.13;2.00;;;;;;;;;;6257935;28;20048;-84
2022/11/06 13:21:24;;;;;;;;;;;;;;;;;;6272285;28;20617;-84
2022/11/06 13:24:47;;;;;;;2.80;1.85;;;;;;;;;;6247847;28;19929;-84
2022/11/06 13:28:20;;;;;;;3.10;1.80;;;;;;;;;;6253071;28;20045;-85
2022/11/06 13:31:29;;;;;;;3.22;1.98;;;;;;;;;;6271864;28;20418;-85
2022/11/06 13:34:34;;;;;;;3.55;1.95;;;;;;;;;;6268170;28;20045;-85
2022/11/06 13:37:42;;;;;;;4.80;2.17;;;;;;;;;;6267052;28;20049;-84
2022/11/06 13:40:51;;;;;;;3.22;2.22;;;;;;;;;;6237400;28;20153;-85
2022/11/06 13:44:03;;;;;;;4.13;2.50;;;;;;;;;;6255796;28;20048;-84
2022/11/06 13:47:18;;;;;;;3.35;2.03;;;;;;;;;;6257804;28;20037;-84
2022/11/06 13:50:49;;;;;;;4.28;2.33;;;;;;;;;;6255056;28;20086;-83
2022/11/06 13:54:05;;;;;;;4.13;2.22;;;;;;;;;;6270602;28;20253;-84
2022/11/06 13:57:28;;;;;;;4.38;2.60;;;;;;;;;;6238813;28;20056;-86
2022/11/06 14:01:07;;;;;;;2.88;2.00;;;;;;;;;;6255242;28;20053;-83
2022/11/06 14:04:21;;;;;;;5.40;2.45;;;;;;;;;;6256076;28;20179;-84
2022/11/06 14:07:28;;;;;;;4.80;2.50;;;;;;;;;;6258228;28;20051;-86
2022/11/06 14:10:38;;;;;;;3.65;2.60;;;;;;;;;;6256424;28;20051;-83
2022/11/06 14:13:40;;;;;;;3.38;2.60;;;;;;;;;;6256662;28;20055;-85
2022/11/06 14:16:42;;;;;;;4.45;2.97;;;;;;;;;;6258980;28;20044;-86
2022/11/06 14:19:44;;;;;;;4.35;2.67;;;;;;;;;;6236717;28;20041;-84
2022/11/06 14:22:51;;;;;;;4.28;2.55;;;;;;;;;;6249703;28;20427;-85
2022/11/06 14:26:08;;;;;;;8.23;3.38;;;;;;;;;;6250321;28;20083;-85
2022/11/06 14:29:24;;;;;;;4.38;2.70;;;;;;;;;;6266371;28;20048;-85
2022/11/06 14:32:33;;;;;;;5.43;2.50;;;;;;;;;;6263917;28;20053;-84
2022/11/06 14:35:35;;;;;;;6.65;3.03;;;;;;;;;;6268952;28;20098;-85
2022/11/06 14:38:37;;;;;;;6.00;3.58;;;;;;;;;;6251017;28;20539;-86
2022/11/06 14:41:39;;;;;;;4.82;2.55;;;;;;;;;;6255828;28;20053;-85
2022/11/06 14:44:44;;;;;;;5.35;2.92;;;;;;;;;;6254617;28;20059;-86
2022/11/06 14:47:51;;;;;;;3.38;2.65;;;;;;;;;;6242432;28;20140;-85
2022/11/06 14:50:53;;;;;;;3.72;2.78;;;;;;;;;;6255729;28;20074;-84
2022/11/06 14:53:58;;;;;;;6.75;3.75;;;;;;;;;;6252802;28;20045;-84
2022/11/06 14:57:00;;;;;;;14.55;6.63;;;;;;;;;;6273896;28;20052;-85
2022/11/06 15:00:02;;;;;;;6.18;3.90;;;;;;;;;;6273430;28;20064;-85
2022/11/06 15:03:15;;;;;;;6.35;2.90;;;;;;;;;;6276973;28;20044;-87
2022/11/06 15:06:16;;;;;;;6.67;4.23;;;;;;;;;;6258050;28;20037;-86
2022/11/06 15:09:23;;;;;;;6.05;3.70;;;;;;;;;;6271204;28;20510;-85
2022/11/06 15:13:02;;;;;;;3.47;2.72;;;;;;;;;;6243064;28;20142;-85
2022/11/06 15:16:10;;;;;;;3.90;2.92;;;;;;;;;;6259578;28;20048;-85
2022/11/06 15:19:25;;;;;;;4.30;2.72;;;;;;;;;;6256627;28;20052;-84
2022/11/06 15:22:31;;;;;;;4.70;3.10;;;;;;;;;;6257333;28;20589;-84
2022/11/06 15:25:36;;;;;;;8.13;3.75;;;;;;;;;;6257615;28;20033;-84
2022/11/06 15:28:43;;;;;;;5.00;2.80;;;;;;;;;;6258303;28;20045;-86
2022/11/06 15:31:57;;;;;;;15.95;6.15;;;;;;;;;;6240155;28;20132;-86
2022/11/06 15:35:12;;;;;;;6.50;3.03;;;;;;;;;;6257533;28;20055;-84
2022/11/06 15:38:18;;;;;;;7.25;4.28;;;;;;;;;;6260880;28;20099;-82
2022/11/06 15:41:23;;;;;;;9.00;5.00;;;;;;;;;;6276042;28;20053;-86
2022/11/06 15:44:25;;;;;;;6.13;3.35;;;;;;;;;;6259990;28;20041;-86
2022/11/06 15:47:28;;;;;;;5.63;3.90;;;;;;;;;;6263625;28;20131;-85
2022/11/06 15:50:34;;;;;;;19.45;8.77;;;;;;;;;;6263689;28;20048;-85
2022/11/06 15:53:38;;;;;;;5.35;3.10;;;;;;;;;;6257913;28;20044;-88
2022/11/06 15:56:42;;;;;;;7.78;3.88;;;;;;;;;;6277337;28;20526;-84
2022/11/06 15:59:44;;;;;;;6.97;4.13;;;;;;;;;;6274587;28;20448;-84
2022/11/06 16:02:57;;;;;;;20.85;8.32;;;;;;;;;;6262590;28;20041;-85
2022/11/06 16:06:02;;;;;;;6.10;3.58;;;;;;;;;;6263902;28;20056;-84
2022/11/06 16:09:08;;;;;;;6.05;3.30;;;;;;;;;;6266316;28;20124;-85
2022/11/06 16:12:13;;;;;;;23.27;11.38;;;;;;;;;;6279924;28;20040;-87
2022/11/06 16:15:46;;;;;;;7.45;4.07;;;;;;;;;;6257754;28;20037;-85
2022/11/06 16:18:48;;;;;;;8.15;5.00;;;;;;;;;;6260233;28;20060;-84
2022/11/06 16:21:55;;;;;;;7.07;5.00;;;;;;;;;;6265958;28;20046;-83
2022/11/06 16:25:01;;;;;;;5.40;4.05;;;;;;;;;;6285271;28;20135;-84
2022/11/06 16:28:03;;;;;;;11.30;6.60;;;;;;;;;;6276961;28;20136;-85
2022/11/06 16:31:12;;;;;;;7.90;4.00;;;;;;;;;;6260952;28;20037;-84
2022/11/06 16:34:20;;;;;;;7.53;5.07;;;;;;;;;;6265347;28;20049;-85
2022/11/06 16:37:28;;;;;;;11.18;7.57;;;;;;;;;;6261590;28;20242;-84
2022/11/06 16:40:49;;;;;;;11.48;8.98;;;;;;;;;;6258091;28;20052;-85
2022/11/06 16:44:34;;;;;;;19.83;14.98;;;;;;;;;;6251251;28;20055;-85
2022/11/06 16:47:36;;;;;;;25.17;17.45;;;;;;;;;;6253065;28;20132;-82
2022/11/06 16:50:44;;;;;;;24.98;15.00;;;;;;;;;;6275989;28;20132;-85
2022/11/06 16:53:56;;;;;;;16.30;10.45;;;;;;;;;;6272698;28;20096;-84
2022/11/06 16:57:08;;;;;;;16.95;10.55;;;;;;;;;;6256867;28;20057;-85
2022/11/06 17:00:34;;;;;;;14.57;8.85;;;;;;;;;;6263827;28;20051;-83
2022/11/06 17:03:46;;;;;;;12.02;7.13;;;;;;;;;;6251041;28;20151;-84
2022/11/06 17:06:50;;;;;;;14.85;8.48;;;;;;;;;;6271632;28;20554;-85
2022/11/06 17:09:55;;;;;;;15.55;7.78;;;;;;;;;;6273378;28;20057;-85
2022/11/06 17:12:57;;;;;;;14.23;7.72;;;;;;;;;;6267327;28;20051;-84
2022/11/06 17:16:02;;;;;;;12.68;7.25;;;;;;;;;;6271769;28;20060;-84
2022/11/06 17:19:04;;;;;;;11.43;7.00;;;;;;;;;;6256747;28;20044;-85
2022/11/06 17:22:09;;;;;;;8.43;6.13;;;;;;;;;;6273511;28;20056;-84
2022/11/06 17:25:20;;;;;;;7.53;4.95;;;;;;;;;;6259032;28;20842;-83
2022/11/06 17:28:35;;;;;;;13.13;6.47;;;;;;;;;;6258381;28;20045;-83
2022/11/06 17:31:38;;;;;;;11.05;5.80;;;;;;;;;;6254769;28;20049;-83
2022/11/06 17:34:39;;;;;;;9.32;5.90;;;;;;;;;;6233944;28;20105;-84
2022/11/06 17:37:41;;;;;;;10.90;6.47;;;;;;;;;;6254961;28;20203;-85
2022/11/06 17:40:43;;;;;;;15.40;8.13;;;;;;;;;;6254743;28;20033;-84
2022/11/06 17:43:45;;;;;;;10.88;7.13;;;;;;;;;;6254752;28;20049;-85
2022/11/06 17:46:47;;;;;;;10.57;6.63;;;;;;;;;;6252596;28;20052;-85
2022/11/06 17:49:48;;;;;;;14.13;8.77;;;;;;;;;;6273224;28;20056;-84
2022/11/06 17:52:50;;;;;;;17.67;10.30;;;;;;;;;;6255242;28;20129;-83
2022/11/06 17:55:52;;;;;;;20.10;12.70;;;;;;;;;;6252620;28;20059;-86
2022/11/06 17:58:53;;;;;;;19.55;13.18;;;;;;;;;;6255784;28;22661;-86
2022/11/06 18:01:56;;;;;;;26.40;13.00;;;;;;;;;;6255459;28;20522;-85
2022/11/06 18:04:58;;;;;;;25.83;14.18;;;;;;;;;;6256334;28;20072;-85
2022/11/06 18:07:59;;;;;;;47.17;22.63;;;;;;;;;;6259501;28;20041;-84
2022/11/06 18:11:01;;;;;;;25.92;12.90;;;;;;;;;;6256478;28;20507;-86
2022/11/06 18:14:03;;;;;;;29.80;13.80;;;;;;;;;;6274052;28;20041;-84
2022/11/06 18:17:04;;;;;;;21.48;11.10;;;;;;;;;;6259057;28;20137;-84
2022/11/06 18:20:07;;;;;;;18.48;8.85;;;;;;;;;;6256031;28;20045;-84
2022/11/06 18:23:08;;;;;;;39.58;19.83;;;;;;;;;;6258119;28;20071;-84
2022/11/06 18:26:10;;;;;;;10.80;4.38;;;;;;;;;;6257585;28;20060;-85
2022/11/06 18:29:12;;;;;;;7.68;4.38;;;;;;;;;;6270006;28;20051;-85
2022/11/06 18:32:13;;;;;;;8.32;4.70;;;;;;;;;;6250639;28;20045;-84
2022/11/06 18:35:15;;;;;;;10.38;6.20;;;;;;;;;;6242538;28;20040;-84
2022/11/06 18:38:17;;;;;;;11.02;6.20;;;;;;;;;;6251320;28;20041;-84
2022/11/06 18:41:20;;;;;;;10.82;6.25;;;;;;;;;;6231493;28;20044;-83
2022/11/06 18:44:22;;;;;;;7.82;5.00;;;;;;;;;;6251801;28;20044;-83